Time;durP1;ratioP1;P1;durP2;ratioP2;P2;SDS_P1;SDS_P2;PMS_P1;PMS_P2;Temp;Humidity;BMP_temperature;BMP_pressure;BME280_temperature;BME280_humidity;BME280_pressure;Samples;Min_cycle;Max_cycle;Signal;HPM_P1;HPM_P2
2023/04/20 00:01:29;;;;;;;;;10.00;10.00;;;;;15.75;46.06;101395.47;4995918;28;45420;-77
2023/04/20 00:03:55;;;;;;;;;11.67;7.00;;;;;15.71;45.89;101389.31;5017437;28;45419;-80
2023/04/20 00:06:21;;;;;;;;;8.00;5.33;;;;;15.67;45.95;101390.19;5015923;28;45623;-76
2023/04/20 00:08:46;;;;;;;;;8.33;6.00;;;;;15.64;45.85;101384.84;5017207;28;46201;-77
2023/04/20 00:11:11;;;;;;;;;10.00;9.00;;;;;15.62;46.03;101386.59;5015499;28;66098;-77
2023/04/20 00:13:37;;;;;;;;;9.00;7.00;;;;;15.57;45.63;101380.41;5016386;28;64566;-79
2023/04/20 00:16:02;;;;;;;;;13.33;8.00;;;;;15.54;45.67;101377.72;5013813;28;63172;-77
2023/04/20 00:18:27;;;;;;;;;9.67;8.33;;;;;15.49;45.97;101368.84;5016132;28;45488;-76
2023/04/20 00:20:53;;;;;;;;;11.00;9.33;;;;;15.43;45.37;101371.53;5016100;28;60727;-79
2023/04/20 00:23:18;;;;;;;;;14.00;9.33;;;;;15.42;45.74;101372.41;5015534;28;46279;-76
2023/04/20 00:25:44;;;;;;;;;10.33;9.00;;;;;15.39;45.96;101369.75;5016772;28;45434;-80
2023/04/20 00:28:09;;;;;;;;;10.00;9.33;;;;;15.34;46.15;101367.09;5016012;28;45984;-77
2023/04/20 00:30:34;;;;;;;;;8.33;6.33;;;;;15.34;45.97;101364.44;5016277;28;61067;-77
2023/04/20 00:33:01;;;;;;;;;9.33;8.67;;;;;15.32;46.12;101363.53;5015753;28;45246;-77
2023/04/20 00:35:26;;;;;;;;;6.00;6.00;;;;;15.28;46.35;101359.09;5016584;28;45348;-77
2023/04/20 00:37:52;;;;;;;;;11.67;7.33;;;;;15.24;45.70;101354.69;5016383;28;50726;-77
2023/04/20 00:40:17;;;;;;;;;9.00;6.00;;;;;15.24;46.10;101361.78;5014741;28;45640;-79
2023/04/20 00:42:42;;;;;;;;;15.33;7.33;;;;;15.20;46.10;101363.53;4999270;28;45564;-77
2023/04/20 00:45:08;;;;;;;;;13.67;9.67;;;;;15.13;46.40;101352.03;5014997;28;59848;-77
2023/04/20 00:47:34;;;;;;;;;8.00;8.00;;;;;15.13;46.34;101357.34;5016085;28;46866;-77
2023/04/20 00:49:59;;;;;;;;;9.33;7.00;;;;;15.07;46.87;101356.44;5015908;28;45383;-77
2023/04/20 00:52:25;;;;;;;;;8.33;7.67;;;;;15.01;46.92;101354.66;4997039;28;59058;-78
2023/04/20 00:54:51;;;;;;;;;11.75;8.00;;;;;14.98;46.90;101362.66;5016817;28;45380;-77
2023/04/20 00:57:18;;;;;;;;;9.33;7.00;;;;;14.92;46.99;101368.84;5016041;28;46573;-77
2023/04/20 00:59:43;;;;;;;;;9.00;6.33;;;;;14.87;46.84;101359.97;5016196;28;45206;-77
2023/04/20 01:02:09;;;;;;;;;9.33;7.33;;;;;14.82;46.67;101351.09;5016129;28;45462;-79
2023/04/20 01:04:38;;;;;;;;;7.00;5.67;;;;;14.79;47.12;101351.06;5015949;28;45331;-77
2023/04/20 01:07:04;;;;;;;;;8.25;7.25;;;;;14.75;47.48;101353.72;5015872;28;45357;-77
2023/04/20 01:09:29;;;;;;;;;8.00;7.25;;;;;14.68;47.44;101347.50;5015104;28;45282;-80
2023/04/20 01:11:55;;;;;;;;;9.67;8.00;;;;;14.65;47.50;101345.75;5015495;28;61476;-76
2023/04/20 01:14:20;;;;;;;;;8.25;7.00;;;;;14.61;47.45;101343.06;5015775;28;45381;-77
2023/04/20 01:16:46;;;;;;;;;8.00;8.00;;;;;14.59;47.67;101343.03;5015574;28;47748;-80
2023/04/20 01:19:12;;;;;;;;;10.33;8.00;;;;;14.56;47.75;101348.38;5016246;28;45381;-79
2023/04/20 01:21:37;;;;;;;;;12.25;8.50;;;;;14.55;47.78;101351.03;5015515;28;45480;-79
2023/04/20 01:24:03;;;;;;;;;8.33;7.00;;;;;14.50;47.56;101340.38;5015944;28;45468;-77
2023/04/20 01:26:29;;;;;;;;;9.75;8.00;;;;;14.49;47.85;101340.34;5015381;28;47196;-77
2023/04/20 01:28:54;;;;;;;;;7.00;7.00;;;;;14.46;47.80;101335.91;5015242;28;45729;-76
2023/04/20 01:31:19;;;;;;;;;8.50;7.75;;;;;14.42;48.34;101332.34;5016055;28;45396;-76
2023/04/20 01:33:45;;;;;;;;;11.00;7.25;;;;;14.39;48.27;101331.47;5015497;28;45439;-77
2023/04/20 01:36:11;;;;;;;;;9.00;7.50;;;;;14.35;47.86;101332.31;5019540;28;46023;-76
2023/04/20 01:38:36;;;;;;;;;6.00;6.00;;;;;14.32;48.14;101319.03;5019272;28;45423;-80
2023/04/20 01:41:03;;;;;;;;;12.50;7.75;;;;;14.30;48.09;101320.78;5018998;28;62528;-79
2023/04/20 01:43:29;;;;;;;;;12.00;6.00;;;;;14.27;48.47;101320.78;5019213;28;45442;-81
2023/04/20 01:45:54;;;;;;;;;8.50;8.50;;;;;14.21;48.42;101318.97;5019087;28;46249;-79
2023/04/20 01:48:20;;;;;;;;;8.00;8.00;;;;;14.18;48.48;101316.34;5017330;28;46028;-77
2023/04/20 01:50:45;;;;;;;;;11.00;7.25;;;;;14.18;48.38;101318.09;5016310;28;45487;-78
2023/04/20 01:53:12;;;;;;;;;7.75;6.00;;;;;14.12;48.46;101308.34;5017626;28;61967;-80
2023/04/20 01:55:37;;;;;;;;;7.00;7.00;;;;;14.07;48.49;101313.63;5017965;28;46416;-77
2023/04/20 01:58:03;;;;;;;;;8.00;6.25;;;;;14.07;48.42;101315.41;5018682;28;45181;-76
2023/04/20 02:00:28;;;;;;;;;9.25;7.00;;;;;14.04;48.48;101313.59;5017506;28;62772;-77
2023/04/20 02:02:54;;;;;;;;;8.75;7.00;;;;;14.03;48.57;101310.94;5019311;28;45253;-77
2023/04/20 02:05:20;;;;;;;;;11.50;7.75;;;;;14.01;48.89;101316.25;5018313;28;46291;-76
2023/04/20 02:07:45;;;;;;;;;8.00;7.00;;;;;14.00;48.73;101316.22;5016607;28;45487;-77
2023/04/20 02:10:10;;;;;;;;;11.75;6.00;;;;;13.98;48.54;101316.22;5017526;28;56227;-80
2023/04/20 02:12:36;;;;;;;;;9.00;5.75;;;;;13.94;48.97;101322.41;5018723;28;45413;-79
2023/04/20 02:15:01;;;;;;;;;7.00;7.00;;;;;13.92;49.37;101323.28;5017785;28;66658;-76
2023/04/20 02:17:27;;;;;;;;;8.00;6.00;;;;;13.85;49.02;101317.06;5017393;28;45750;-77
2023/04/20 02:19:52;;;;;;;;;6.75;6.50;;;;;13.82;48.99;101323.22;5014541;28;45499;-77
2023/04/20 02:22:17;;;;;;;;;6.25;6.00;;;;;13.80;49.33;101327.66;5013317;28;60848;-77
2023/04/20 02:24:43;;;;;;;;;8.75;7.25;;;;;13.79;48.99;101327.63;5017462;28;66092;-77
2023/04/20 02:27:09;;;;;;;;;7.00;5.00;;;;;13.78;49.49;101331.16;5018577;28;45367;-77
2023/04/20 02:29:34;;;;;;;;;12.75;8.00;;;;;13.76;49.02;101320.53;5018622;28;45487;-77
2023/04/20 02:32:00;;;;;;;;;4.75;4.75;;;;;13.76;49.81;101328.50;5020141;28;62230;-77
2023/04/20 02:34:25;;;;;;;;;8.25;7.00;;;;;13.70;49.54;101325.81;4999851;28;46296;-77
2023/04/20 02:36:51;;;;;;;;;7.75;6.00;;;;;13.71;49.77;101332.00;5018293;28;45285;-77
2023/04/20 02:39:16;;;;;;;;;12.00;7.50;;;;;13.70;49.82;101340.88;5017325;28;62268;-77
2023/04/20 02:41:41;;;;;;;;;11.00;7.75;;;;;13.66;49.53;101333.75;5018548;28;45282;-80
2023/04/20 02:44:07;;;;;;;;;9.33;6.33;;;;;13.61;49.55;101329.28;5017201;28;66094;-76
2023/04/20 02:46:32;;;;;;;;;11.50;7.00;;;;;13.59;50.21;101331.06;5015831;28;63255;-77
2023/04/20 02:48:57;;;;;;;;;6.25;5.00;;;;;13.56;50.21;101332.78;5017122;28;58330;-76
2023/04/20 02:51:23;;;;;;;;;6.75;6.50;;;;;13.52;49.72;101331.00;5017103;28;62087;-77
2023/04/20 02:53:48;;;;;;;;;8.00;6.00;;;;;13.48;49.89;101332.75;5016417;28;46772;-78
2023/04/20 02:56:14;;;;;;;;;6.25;4.75;;;;;13.46;50.32;101329.19;5018026;28;45428;-76
2023/04/20 02:58:39;;;;;;;;;6.00;5.00;;;;;13.45;50.42;101334.50;5017912;28;46001;-78
2023/04/20 03:01:05;;;;;;;;;5.50;5.50;;;;;13.43;50.01;101333.59;5018390;28;47126;-76
2023/04/20 03:03:31;;;;;;;;;8.25;4.00;;;;;13.41;50.01;101336.22;5017502;28;47634;-76
2023/04/20 03:05:57;;;;;;;;;7.75;6.25;;;;;13.37;50.05;101337.09;5017736;28;45487;-76
2023/04/20 03:08:22;;;;;;;;;5.25;5.25;;;;;13.36;50.06;101337.94;5017906;28;45498;-77
2023/04/20 03:10:47;;;;;;;;;4.25;4.25;;;;;13.34;50.59;101335.28;5017161;28;47013;-76
2023/04/20 03:13:13;;;;;;;;;6.50;5.50;;;;;13.32;50.61;101331.75;5017839;28;45882;-77
2023/04/20 03:15:38;;;;;;;;;9.25;6.75;;;;;13.32;50.69;101331.75;5017245;28;45338;-79
2023/04/20 03:18:04;;;;;;;;;6.25;5.25;;;;;13.32;50.63;101336.19;4999602;28;62602;-77
2023/04/20 03:20:29;;;;;;;;;5.00;5.00;;;;;13.30;50.67;101333.50;5013306;28;45719;-80
2023/04/20 03:22:55;;;;;;;;;5.75;4.00;;;;;13.31;50.34;101351.16;5017277;28;46612;-77
2023/04/20 03:25:21;;;;;;;;;7.00;6.00;;;;;13.31;50.36;101331.72;5017128;28;45475;-77
2023/04/20 03:27:46;;;;;;;;;6.75;5.50;;;;;13.31;50.81;101334.38;5017290;28;46635;-81
2023/04/20 03:30:12;;;;;;;;;4.50;4.50;;;;;13.29;50.45;101334.38;5018797;28;45404;-77
2023/04/20 03:32:37;;;;;;;;;7.00;5.00;;;;;13.26;50.61;101329.06;5014367;28;46456;-78
2023/04/20 03:35:06;;;;;;;;;6.00;4.75;;;;;13.25;50.76;101332.56;5015892;28;47275;-77
2023/04/20 03:37:31;;;;;;;;;4.50;4.50;;;;;13.22;50.81;101332.56;5016941;28;45355;-80
2023/04/20 03:39:56;;;;;;;;;8.50;4.50;;;;;13.18;50.45;101336.00;5017009;28;56069;-77
2023/04/20 03:42:22;;;;;;;;;7.75;4.00;;;;;13.15;50.86;101330.69;5015770;28;45639;-77
2023/04/20 03:44:47;;;;;;;;;8.00;4.50;;;;;13.14;51.00;101328.91;5017144;28;45372;-80
2023/04/20 03:47:13;;;;;;;;;7.25;5.25;;;;;13.11;51.19;101323.59;5016488;28;64543;-76
2023/04/20 03:49:38;;;;;;;;;5.00;3.75;;;;;13.09;51.21;101334.16;4999073;28;45238;-76
2023/04/20 03:52:04;;;;;;;;;4.50;4.50;;;;;13.05;51.20;101335.03;5015737;28;71249;-80
2023/04/20 03:54:30;;;;;;;;;5.00;5.00;;;;;13.02;51.10;101332.34;5016705;28;45379;-77
2023/04/20 03:56:55;;;;;;;;;6.00;5.25;;;;;12.98;50.88;101337.59;5016370;28;45373;-77
2023/04/20 03:59:21;;;;;;;;;5.25;4.50;;;;;12.97;51.02;101335.81;5016703;28;61919;-77
2023/04/20 04:01:46;;;;;;;;;6.00;4.25;;;;;12.94;51.17;101338.44;5015403;28;45825;-77
2023/04/20 04:04:11;;;;;;;;;5.50;4.00;;;;;12.91;50.91;101339.31;5016409;28;63377;-77
2023/04/20 04:06:37;;;;;;;;;5.75;5.00;;;;;12.91;50.87;101338.44;5016874;28;45266;-77
2023/04/20 04:09:02;;;;;;;;;6.50;5.50;;;;;12.88;50.92;101341.03;5016426;28;49887;-80
2023/04/20 04:11:29;;;;;;;;;9.00;5.50;;;;;12.85;50.99;101347.22;5016616;28;47623;-77
2023/04/20 04:13:55;;;;;;;;;4.00;4.00;;;;;12.81;50.82;101348.94;5016503;28;45514;-80
2023/04/20 04:16:20;;;;;;;;;5.75;4.00;;;;;12.80;51.21;101347.16;5017105;28;45531;-77
2023/04/20 04:18:46;;;;;;;;;5.00;4.00;;;;;12.80;51.11;101355.09;5015199;28;64155;-78
2023/04/20 04:21:11;;;;;;;;;3.75;3.75;;;;;12.77;50.98;101346.22;5014547;28;46078;-80
2023/04/20 04:23:36;;;;;;;;;5.50;4.25;;;;;12.75;51.20;101356.81;5015944;28;50145;-77
2023/04/20 04:26:03;;;;;;;;;5.00;3.25;;;;;12.73;51.15;101365.59;5015869;28;57892;-77
2023/04/20 04:28:30;;;;;;;;;5.00;3.50;;;;;12.70;51.10;101366.47;5016542;28;45345;-77
2023/04/20 04:30:55;;;;;;;;;5.25;4.00;;;;;12.66;50.91;101356.72;5015479;28;46722;-78
2023/04/20 04:33:20;;;;;;;;;3.50;3.50;;;;;12.66;51.03;101361.13;5016575;28;45549;-78
2023/04/20 04:35:47;;;;;;;;;4.00;4.00;;;;;12.63;50.68;101364.66;5015795;28;45356;-76
2023/04/20 04:38:12;;;;;;;;;5.00;5.00;;;;;12.63;50.78;101369.06;4993631;28;45521;-76
2023/04/20 04:40:40;;;;;;;;;4.75;4.00;;;;;12.60;51.41;101372.53;5014936;28;45620;-78
2023/04/20 04:43:09;;;;;;;;;4.00;4.00;;;;;12.55;50.82;101372.50;5016386;28;45382;-76
2023/04/20 04:45:38;;;;;;;;;5.25;4.00;;;;;12.53;51.17;101358.34;5015744;28;45344;-79
2023/04/20 04:48:04;;;;;;;;;4.00;4.00;;;;;12.52;50.68;101369.81;5016118;28;45327;-76
2023/04/20 04:50:29;;;;;;;;;5.75;5.25;;;;;12.49;50.72;101368.88;5015083;28;46201;-76
2023/04/20 04:52:55;;;;;;;;;6.50;5.50;;;;;12.46;50.98;101369.72;5013952;28;66160;-77
2023/04/20 04:55:21;;;;;;;;;7.50;5.00;;;;;12.44;50.93;101374.13;5014500;28;45689;-76
2023/04/20 04:57:46;;;;;;;;;4.25;3.00;;;;;12.42;50.65;101367.03;5016211;28;45465;-76
2023/04/20 05:00:12;;;;;;;;;2.75;2.75;;;;;12.40;50.73;101371.41;5015052;28;70074;-78
2023/04/20 05:02:37;;;;;;;;;9.00;5.25;;;;;12.39;50.67;101381.13;5014925;28;45575;-76
2023/04/20 05:05:03;;;;;;;;;6.50;6.50;;;;;12.39;50.71;101386.41;5015300;28;53407;-76
2023/04/20 05:07:28;;;;;;;;;7.50;5.00;;;;;12.38;50.55;101395.25;5016293;28;46226;-76
2023/04/20 05:09:54;;;;;;;;;9.25;5.25;;;;;12.38;50.99;101394.34;5014888;28;45680;-77
2023/04/20 05:12:19;;;;;;;;;4.50;4.25;;;;;12.34;50.71;101388.13;5015439;28;45455;-79
2023/04/20 05:14:45;;;;;;;;;5.50;5.00;;;;;12.33;50.83;101397.81;5015710;28;45314;-77
2023/04/20 05:17:10;;;;;;;;;8.50;4.00;;;;;12.35;50.87;101399.59;5014756;28;45398;-75
2023/04/20 05:19:35;;;;;;;;;6.50;6.25;;;;;12.35;50.89;101387.25;5010664;28;45785;-75
2023/04/20 05:22:01;;;;;;;;;4.25;4.25;;;;;12.34;50.75;101398.72;5013166;28;45706;-75
2023/04/20 05:24:26;;;;;;;;;5.00;4.00;;;;;12.33;50.73;101403.13;5014152;28;45297;-75
2023/04/20 05:26:51;;;;;;;;;4.00;3.00;;;;;12.36;50.81;101406.66;5018189;28;45564;-74
2023/04/20 05:29:17;;;;;;;;;5.75;4.00;;;;;12.36;50.62;101409.31;5014917;28;66547;-75
2023/04/20 05:31:42;;;;;;;;;2.50;2.50;;;;;12.33;50.76;101410.19;5012874;28;45403;-75
2023/04/20 05:34:08;;;;;;;;;9.00;5.00;;;;;12.33;50.90;101407.53;5015452;28;45336;-77
2023/04/20 05:36:33;;;;;;;;;5.50;5.00;;;;;12.33;50.65;101408.41;5015510;28;60841;-75
2023/04/20 05:38:58;;;;;;;;;5.00;4.00;;;;;12.35;51.01;101408.44;5010321;28;60109;-75
2023/04/20 05:41:26;;;;;;;;;5.00;3.50;;;;;12.35;50.94;101407.53;5012551;28;49292;-75
2023/04/20 05:43:53;;;;;;;;;8.75;8.00;;;;;12.31;51.01;101407.53;5012310;28;45251;-73
2023/04/20 05:46:18;;;;;;;;;8.25;6.00;;;;;12.32;50.76;101411.06;5013936;28;45412;-74
2023/04/20 05:48:43;;;;;;;;;3.00;3.00;;;;;12.32;50.95;101401.34;5012966;28;45936;-75
2023/04/20 05:51:09;;;;;;;;;5.00;4.00;;;;;12.33;50.73;101412.81;5007178;28;66655;-75
2023/04/20 05:53:34;;;;;;;;;5.25;4.25;;;;;12.35;50.73;101407.53;5003555;28;61459;-76
2023/04/20 05:55:59;;;;;;;;;5.50;4.50;;;;;12.36;51.05;101420.81;5010347;28;45632;-75
2023/04/20 05:58:26;;;;;;;;;5.25;3.50;;;;;12.37;51.05;101411.13;5011700;28;67213;-74
2023/04/20 06:00:51;;;;;;;;;12.50;5.50;;;;;12.37;50.82;101412.00;5013225;28;45549;-75
2023/04/20 06:03:16;;;;;;;;;6.50;6.00;;;;;12.38;50.88;101410.25;5009150;28;45424;-74
2023/04/20 06:05:42;;;;;;;;;10.00;6.25;;;;;12.37;50.77;101409.34;5008344;28;61729;-74
2023/04/20 06:08:07;;;;;;;;;6.00;3.00;;;;;12.41;51.30;101410.25;5003708;28;54134;-74
2023/04/20 06:10:33;;;;;;;;;7.50;4.25;;;;;12.43;51.04;101414.72;5013919;28;63970;-75
2023/04/20 06:12:58;;;;;;;;;8.00;5.00;;;;;12.46;51.02;101411.22;5004615;28;45468;-74
2023/04/20 06:15:24;;;;;;;;;5.75;3.75;;;;;12.46;50.73;101405.91;5015423;28;45431;-74
2023/04/20 06:17:49;;;;;;;;;15.75;8.00;;;;;12.46;50.99;101408.56;5014334;28;69477;-75
2023/04/20 06:20:15;;;;;;;;;6.75;6.00;;;;;12.47;50.80;101410.38;5016285;28;61928;-75
2023/04/20 06:22:43;;;;;;;;;8.00;7.75;;;;;12.49;50.88;101408.63;5018544;28;45470;-75
2023/04/20 06:25:09;;;;;;;;;6.00;6.00;;;;;12.50;51.05;101413.03;5017728;28;45468;-75
2023/04/20 06:27:34;;;;;;;;;6.00;5.00;;;;;12.53;50.68;101416.63;5023360;28;46099;-75
2023/04/20 06:30:00;;;;;;;;;5.75;5.75;;;;;12.53;50.75;101416.63;5017947;28;45537;-75
2023/04/20 06:32:25;;;;;;;;;9.25;5.75;;;;;12.57;50.89;101415.81;5030529;28;63691;-74
2023/04/20 06:34:51;;;;;;;;;8.00;6.00;;;;;12.60;50.63;101417.59;5018438;28;45281;-75
2023/04/20 06:37:17;;;;;;;;;7.00;7.00;;;;;12.62;50.53;101423.78;5016182;28;46581;-74
2023/04/20 06:39:42;;;;;;;;;6.75;5.00;;;;;12.65;50.73;101431.78;5016392;28;45342;-75
2023/04/20 06:42:08;;;;;;;;;5.50;5.50;;;;;12.67;50.80;101429.13;5017497;28;60323;-75
2023/04/20 06:44:33;;;;;;;;;5.50;5.25;;;;;12.66;50.90;101422.94;5017920;28;59134;-72
2023/04/20 06:46:58;;;;;;;;;5.75;4.75;;;;;12.67;50.82;101422.06;5018704;28;56793;-73
2023/04/20 06:49:24;;;;;;;;;11.00;8.00;;;;;12.71;50.75;101415.06;5017575;28;60850;-75
2023/04/20 06:51:49;;;;;;;;;6.00;6.00;;;;;12.75;50.92;101417.78;5016506;28;61809;-75
2023/04/20 06:54:14;;;;;;;;;7.00;5.25;;;;;12.77;50.87;101420.44;4998373;28;45409;-73
2023/04/20 06:56:40;;;;;;;;;8.75;5.75;;;;;12.76;50.86;101427.50;5009710;28;46988;-74
2023/04/20 06:59:05;;;;;;;;;8.00;8.00;;;;;12.80;50.75;101415.16;5017792;28;68712;-76
2023/04/20 07:01:30;;;;;;;;;8.00;6.00;;;;;12.79;50.62;101409.00;5015729;28;45821;-74
2023/04/20 07:03:56;;;;;;;;;8.50;4.75;;;;;12.83;50.91;101409.88;5018413;28;53497;-74
2023/04/20 07:06:21;;;;;;;;;12.00;8.75;;;;;12.85;50.75;101410.81;5016035;28;69432;-73
2023/04/20 07:08:46;;;;;;;;;7.50;6.00;;;;;12.91;50.69;101428.53;5015007;28;49830;-74
2023/04/20 07:11:12;;;;;;;;;12.00;7.25;;;;;12.93;50.81;101419.72;5024914;28;64000;-73
2023/04/20 07:13:37;;;;;;;;;5.50;5.50;;;;;12.98;50.51;101423.31;5013425;28;45283;-73
2023/04/20 07:16:03;;;;;;;;;8.50;8.00;;;;;13.01;50.76;101417.16;5016321;28;61683;-71
2023/04/20 07:18:28;;;;;;;;;8.25;8.25;;;;;13.03;50.99;101412.75;5012494;28;45378;-71
2023/04/20 07:20:54;;;;;;;;;6.00;4.00;;;;;13.08;51.00;101411.03;5020649;28;59380;-74
2023/04/20 07:23:20;;;;;;;;;12.75;6.50;;;;;13.13;50.83;101413.75;5016475;28;45443;-72
2023/04/20 07:25:46;;;;;;;;;11.00;10.75;;;;;13.15;51.19;101404.03;5018286;28;46093;-73
2023/04/20 07:28:11;;;;;;;;;12.00;6.75;;;;;13.16;51.51;101401.41;5021629;28;45422;-71
2023/04/20 07:30:37;;;;;;;;;10.75;10.75;;;;;13.20;51.48;101416.47;5016962;28;61356;-70
2023/04/20 07:33:02;;;;;;;;;11.75;10.00;;;;;13.23;51.55;101413.00;5022508;28;45594;-72
2023/04/20 07:35:27;;;;;;;;;9.00;7.25;;;;;13.28;51.13;101411.28;5013170;28;63639;-72
2023/04/20 07:37:53;;;;;;;;;8.67;8.33;;;;;13.29;51.22;101405.97;5010836;28;45427;-73
2023/04/20 07:40:18;;;;;;;;;8.75;7.00;;;;;13.35;51.21;101402.50;5013036;28;56427;-72
2023/04/20 07:42:44;;;;;;;;;6.75;6.75;;;;;13.39;51.76;101398.09;5021884;28;45480;-74
2023/04/20 07:45:12;;;;;;;;;12.00;10.00;;;;;13.43;51.60;101405.22;5017394;28;46576;-72
2023/04/20 07:47:38;;;;;;;;;13.75;10.50;;;;;13.46;51.43;101399.94;5015947;28;45572;-72
2023/04/20 07:50:04;;;;;;;;;14.00;9.75;;;;;13.48;51.45;101396.44;5016113;28;45471;-73
2023/04/20 07:52:30;;;;;;;;;12.25;9.75;;;;;13.50;51.55;101391.13;5016476;28;45572;-70
2023/04/20 07:54:58;;;;;;;;;11.75;8.50;;;;;13.54;51.26;101383.22;5016607;28;52518;-72
2023/04/20 07:57:25;;;;;;;;;10.50;7.75;;;;;13.58;51.11;101386.75;5020210;28;45198;-72
2023/04/20 07:59:50;;;;;;;;;8.75;8.75;;;;;13.59;51.37;101389.44;5016835;28;45725;-72
2023/04/20 08:02:16;;;;;;;;;10.50;8.75;;;;;13.63;50.82;101385.94;5017102;28;45545;-72
2023/04/20 08:04:43;;;;;;;;;7.00;7.00;;;;;13.66;51.27;101389.47;5015593;28;47390;-72
2023/04/20 08:07:09;;;;;;;;;10.50;9.75;;;;;13.71;51.14;101387.75;5018562;28;45503;-71
2023/04/20 08:09:34;;;;;;;;;9.50;7.25;;;;;13.75;51.26;101386.91;5017076;28;45291;-71
2023/04/20 08:12:00;;;;;;;;;12.00;10.75;;;;;13.81;50.74;101386.94;5017425;28;45278;-71
2023/04/20 08:14:25;;;;;;;;;10.75;8.25;;;;;13.85;50.81;101381.66;5015910;28;47605;-71
2023/04/20 08:16:51;;;;;;;;;11.75;8.75;;;;;13.90;50.76;101373.69;5016825;28;45408;-70
2023/04/20 08:19:16;;;;;;;;;9.00;8.00;;;;;13.93;50.94;101376.38;5016331;28;45316;-71
2023/04/20 08:21:42;;;;;;;;;11.50;11.50;;;;;13.97;50.62;101369.34;5021639;28;45289;-70
2023/04/20 08:24:07;;;;;;;;;11.50;10.50;;;;;13.99;50.67;101364.91;5015074;28;47670;-73
2023/04/20 08:26:33;;;;;;;;;13.25;11.75;;;;;14.04;50.18;101360.50;5016584;28;45423;-72
2023/04/20 08:28:59;;;;;;;;;10.25;7.75;;;;;14.07;49.88;101366.75;5015403;28;47056;-73
2023/04/20 08:31:25;;;;;;;;;14.50;12.25;;;;;14.07;49.95;101360.53;5016782;28;45476;-72
2023/04/20 08:33:50;;;;;;;;;10.00;8.50;;;;;14.08;49.66;101367.63;5016665;28;46181;-72
2023/04/20 08:36:16;;;;;;;;;15.50;8.75;;;;;14.06;50.33;101372.03;5015824;28;65965;-72
2023/04/20 08:38:41;;;;;;;;;12.50;9.00;;;;;14.09;50.22;101369.41;5016388;28;45443;-71
2023/04/20 08:41:07;;;;;;;;;12.33;8.00;;;;;14.10;49.81;101364.09;5016270;28;61426;-71
2023/04/20 08:43:32;;;;;;;;;12.33;7.00;;;;;14.15;49.94;101366.75;4997723;28;46452;-72
2023/04/20 08:46:00;;;;;;;;;12.67;9.00;;;;;14.19;50.10;101373.88;5015682;28;45508;-72
2023/04/20 08:48:33;;;;;;;;;11.75;11.00;;;;;14.21;50.18;101364.13;5016597;28;45695;-72
2023/04/20 08:50:58;;;;;;;;;11.67;11.67;;;;;14.26;50.15;101372.13;5018227;28;45309;-72
2023/04/20 08:53:23;;;;;;;;;8.50;8.50;;;;;14.30;50.24;101358.88;5014569;28;70763;-72
2023/04/20 08:55:49;;;;;;;;;14.75;8.75;;;;;14.34;49.64;101357.13;5013697;28;68293;-72
2023/04/20 08:58:15;;;;;;;;;10.50;10.50;;;;;14.34;49.67;101352.69;5015381;28;45492;-70
2023/04/20 09:00:49;;;;;;;;;14.67;11.67;;;;;14.37;49.20;101368.63;5015899;28;57492;-71
2023/04/20 09:03:15;;;;;;;;;10.67;9.00;;;;;14.41;49.09;101358.91;5012916;28;46328;-71
2023/04/20 09:05:43;;;;;;;;;12.33;10.33;;;;;14.44;48.66;101355.41;5015502;28;45558;-72
2023/04/20 09:08:08;;;;;;;;;12.33;9.33;;;;;14.49;48.89;101350.97;5012020;28;47242;-70
2023/04/20 09:10:42;;;;;;;;;13.67;10.00;;;;;14.51;48.61;101339.50;5012318;28;45378;-69
2023/04/20 09:13:09;;;;;;;;;14.33;7.67;;;;;14.57;48.18;101322.69;5016212;28;46057;-70
2023/04/20 09:15:34;;;;;;;;;9.00;8.25;;;;;14.62;48.12;101335.09;4993037;28;45331;-71
2023/04/20 09:18:10;;;;;;;;;9.67;7.00;;;;;14.67;47.96;101328.03;5016186;28;45401;-72
2023/04/20 09:20:36;;;;;;;;;10.33;7.00;;;;;14.72;47.99;101322.72;5019114;28;45411;-70
2023/04/20 09:23:11;;;;;;;;;9.00;8.00;;;;;14.78;47.62;101313.88;5015206;28;69044;-72
2023/04/20 09:25:39;;;;;;;;;9.00;7.00;;;;;14.82;47.83;101311.22;5011289;28;45515;-70
2023/04/20 09:28:05;;;;;;;;;10.67;9.00;;;;;14.85;47.78;101299.69;4998420;28;45381;-71
2023/04/20 09:30:42;;;;;;;;;9.67;8.33;;;;;14.91;47.93;101307.66;5015680;28;45493;-71
2023/04/20 09:33:09;;;;;;;;;14.33;8.33;;;;;14.98;47.50;101305.91;5015013;28;47692;-71
2023/04/20 09:35:36;;;;;;;;;9.33;8.33;;;;;15.02;46.65;101302.34;5015496;28;45424;-72
2023/04/20 09:38:02;;;;;;;;;8.33;7.67;;;;;15.04;46.97;101300.59;4998204;28;45467;-69
2023/04/20 09:40:28;;;;;;;;;8.67;7.33;;;;;15.09;46.45;101298.81;5006328;28;45315;-71
2023/04/20 09:42:55;;;;;;;;;7.67;6.00;;;;;15.09;47.17;101297.03;4997049;28;46274;-70
2023/04/20 09:45:21;;;;;;;;;9.33;7.00;;;;;15.13;46.90;101296.16;4995710;28;45581;-71
2023/04/20 09:47:48;;;;;;;;;6.33;5.67;;;;;15.19;47.00;101285.53;4997043;28;45461;-69
2023/04/20 09:50:13;;;;;;;;;11.00;6.00;;;;;15.21;46.98;101280.19;5016964;28;45658;-69
2023/04/20 09:52:39;;;;;;;;;8.67;7.67;;;;;15.24;47.05;101282.84;4997024;28;49870;-70
2023/04/20 09:55:06;;;;;;;;;8.67;7.67;;;;;15.30;47.11;101273.97;4998091;28;46736;-68
2023/04/20 09:57:31;;;;;;;;;10.00;9.67;;;;;15.34;47.51;101267.75;5019012;28;45197;-73
2023/04/20 09:59:58;;;;;;;;;10.33;7.67;;;;;15.37;47.54;101268.63;5017463;28;59947;-73
2023/04/20 10:02:24;;;;;;;;;10.00;9.33;;;;;15.45;47.31;101265.97;5021214;28;47434;-72
2023/04/20 10:05:00;;;;;;;;;10.67;8.33;;;;;15.59;47.70;101274.78;5018114;28;45406;-71
2023/04/20 10:07:28;;;;;;;;;10.67;9.00;;;;;15.68;47.91;101266.81;5018234;28;45561;-73
2023/04/20 10:10:13;;;;;;;;;8.00;8.00;;;;;15.83;47.60;101271.22;5018342;28;45519;-71
2023/04/20 10:12:51;;;;;;;;;9.00;7.00;;;;;16.01;47.63;101264.94;5012415;28;45894;-71
2023/04/20 10:15:17;;;;;;;;;11.00;8.00;;;;;16.12;47.38;101252.44;5020796;28;45368;-71
2023/04/20 10:17:42;;;;;;;;;9.00;8.00;;;;;16.26;47.60;101256.81;5018500;28;45282;-70
2023/04/20 10:20:18;;;;;;;;;9.67;8.00;;;;;16.30;46.91;101245.22;4999964;28;45338;-71
2023/04/20 10:22:44;;;;;;;;;10.33;10.33;;;;;16.32;46.96;101247.00;5013469;28;45818;-72
2023/04/20 10:25:18;;;;;;;;;10.33;9.00;;;;;16.29;46.89;101260.34;5228383;22;62387;-71
2023/04/20 10:28:03;;;;;;;;;9.67;9.67;;;;;16.26;46.28;101262.16;5014440;28;45895;-70
2023/04/20 10:30:29;;;;;;;;;9.33;7.67;;;;;16.17;46.43;101258.63;5016041;28;45884;-70
2023/04/20 10:33:09;;;;;;;;;9.00;8.00;;;;;16.11;46.43;101255.13;5027788;28;46249;-71
2023/04/20 10:35:45;;;;;;;;;7.33;7.33;;;;;16.11;46.79;101247.13;5028694;28;45698;-72
2023/04/20 10:38:11;;;;;;;;;12.00;9.00;;;;;16.17;46.78;101253.31;5030786;28;45380;-71
2023/04/20 10:40:37;;;;;;;;;9.00;8.67;;;;;16.24;46.89;101239.06;5035299;28;45376;-70
2023/04/20 10:43:02;;;;;;;;;8.67;8.00;;;;;16.30;46.85;101232.81;5032017;28;45726;-72
2023/04/20 10:45:37;;;;;;;;;9.00;9.00;;;;;16.35;46.71;101235.44;5029886;28;45491;-70
2023/04/20 10:48:07;;;;;;;;;14.00;11.00;;;;;16.30;46.69;101232.81;5025618;28;45471;-70
2023/04/20 10:50:33;;;;;;;;;10.00;9.33;;;;;16.25;46.56;101237.28;5034594;28;45556;-71
2023/04/20 10:52:58;;;;;;;;;10.67;9.00;;;;;16.22;47.14;101237.28;5030467;28;45943;-73
2023/04/20 10:55:25;;;;;;;;;9.00;8.67;;;;;16.18;47.22;101225.75;5028850;28;68769;-71
2023/04/20 10:57:50;;;;;;;;;8.67;7.00;;;;;16.16;47.13;101240.88;5034085;28;45542;-72
2023/04/20 11:00:20;;;;;;;;;12.00;10.67;;;;;16.14;47.30;101240.00;5033345;28;45598;-70
2023/04/20 11:02:50;;;;;;;;;15.67;11.33;;;;;16.06;46.88;101232.94;5015566;28;47300;-69
2023/04/20 11:05:17;;;;;;;;;15.00;11.00;;;;;16.04;47.27;101237.41;5030626;28;45280;-71
2023/04/20 11:07:47;;;;;;;;;13.00;11.00;;;;;15.95;47.40;101223.22;5030723;28;45327;-69
2023/04/20 11:10:12;;;;;;;;;11.33;8.67;;;;;15.93;47.77;101234.78;5018634;28;45599;-72
2023/04/20 11:12:38;;;;;;;;;9.67;9.00;;;;;15.87;47.81;101235.72;5036394;28;69711;-71
2023/04/20 11:15:04;;;;;;;;;16.00;11.00;;;;;15.86;48.23;101233.03;5036261;28;45526;-71
2023/04/20 11:17:39;;;;;;;;;9.00;9.00;;;;;15.86;47.86;101233.03;5041742;28;45335;-71